createdAt,value
2022-10-05T00:01:30.134Z,100897.50
2022-10-05T00:04:01.204Z,100900.81
2022-10-05T00:06:33.134Z,100898.09
2022-10-05T00:09:12.368Z,100900.47
2022-10-05T00:11:41.106Z,100898.56
2022-10-05T00:14:17.126Z,100889.53
2022-10-05T00:16:47.473Z,100895.69
2022-10-05T00:19:21.234Z,100903.84
2022-10-05T00:21:49.873Z,100890.75
2022-10-05T00:24:21.173Z,100895.31
2022-10-05T00:26:55.375Z,100890.25
2022-10-05T00:29:28.880Z,100879.97
2022-10-05T00:32:00.481Z,100875.75
2022-10-05T00:34:29.269Z,100873.25
2022-10-05T00:36:57.944Z,100881.50
2022-10-05T00:39:26.976Z,100879.25
2022-10-05T00:42:05.878Z,100875.75
2022-10-05T00:44:38.949Z,100881.28
2022-10-05T00:47:22.449Z,100889.19
2022-10-05T00:50:15.619Z,100892.69
2022-10-05T00:52:51.059Z,100895.31
2022-10-05T00:55:29.207Z,100898.69
2022-10-05T00:58:06.942Z,100899.41
2022-10-05T01:00:40.480Z,100891.50
2022-10-05T01:03:15.741Z,100900.97
2022-10-05T01:05:52.725Z,100893.66
2022-10-05T01:08:29.295Z,100881.50
2022-10-05T01:11:05.250Z,100890.28
2022-10-05T01:13:39.413Z,100889.34
2022-10-05T01:16:12.304Z,100887.66
2022-10-05T01:18:47.893Z,100887.66
2022-10-05T01:21:19.712Z,100906.97
2022-10-05T01:24:21.630Z,100893.88
2022-10-05T01:27:17.950Z,100897.97
2022-10-05T01:29:52.293Z,100886.31
2022-10-05T01:32:26.135Z,100893.28
2022-10-05T01:35:00.754Z,100888.97
2022-10-05T01:37:32.735Z,100888.84
2022-10-05T01:40:07.026Z,100881.03
2022-10-05T01:42:45.915Z,100879.34
2022-10-05T01:45:20.384Z,100874.31
2022-10-05T01:47:52.699Z,100877.09
2022-10-05T01:50:28.329Z,100886.69
2022-10-05T01:53:07.401Z,100900.63
2022-10-05T01:55:41.643Z,100903.13
2022-10-05T01:58:17.247Z,100897.13
2022-10-05T02:00:52.735Z,100898.22
2022-10-05T02:03:26.317Z,100904.31
2022-10-05T02:05:58.406Z,100907.56
2022-10-05T02:08:32.197Z,100905.88
2022-10-05T02:11:03.664Z,100891.72
2022-10-05T02:13:37.021Z,100891.94
2022-10-05T02:16:10.684Z,100879.13
2022-10-05T02:18:42.788Z,100885.47
2022-10-05T02:21:11.774Z,100881.13
2022-10-05T02:23:43.137Z,100875.16
2022-10-05T02:26:13.451Z,100859.44
2022-10-05T02:28:45.776Z,100841.81
2022-10-05T02:31:18.467Z,100831.97
2022-10-05T02:33:49.851Z,100828.63
2022-10-05T02:36:25.441Z,100854.28
2022-10-05T02:39:02.827Z,100853.09
2022-10-05T02:41:41.488Z,100862.78
2022-10-05T02:44:19.030Z,100855.97
2022-10-05T02:46:57.173Z,100842.13
2022-10-05T02:49:33.264Z,100851.88
2022-10-05T02:52:09.159Z,100849.22
2022-10-05T02:54:45.100Z,100869.38
2022-10-05T02:57:18.490Z,100868.66
2022-10-05T02:59:52.718Z,100852.97
2022-10-05T03:02:25.978Z,100854.75
2022-10-05T03:05:00.748Z,100872.38
2022-10-05T03:07:32.988Z,100870.56
2022-10-05T03:10:07.970Z,100880.53
2022-10-05T03:12:46.561Z,100887.72
2022-10-05T03:15:24.596Z,100872.00
2022-10-05T03:18:02.770Z,100881.59
2022-10-05T03:20:36.283Z,100876.22
2022-10-05T03:23:06.310Z,100875.34
2022-10-05T03:25:48.265Z,100884.94
2022-10-05T03:28:22.786Z,100891.91
2022-10-05T03:30:57.550Z,100891.81
2022-10-05T03:33:34.179Z,100883.16
2022-10-05T03:36:08.070Z,100890.97
2022-10-05T03:38:50.231Z,100888.22
2022-10-05T03:41:22.976Z,100885.09
2022-10-05T03:44:03.698Z,100873.81
2022-10-05T03:46:42.000Z,100863.63
2022-10-05T03:49:18.169Z,100853.28
2022-10-05T03:51:48.620Z,100857.50
2022-10-05T03:54:22.224Z,100856.88
2022-10-05T03:56:54.268Z,100873.56
2022-10-05T03:59:32.262Z,100866.00
2022-10-05T04:02:03.130Z,100860.72
2022-10-05T04:04:36.471Z,100847.88
2022-10-05T04:07:09.720Z,100861.19
2022-10-05T04:09:42.945Z,100849.81
2022-10-05T04:12:16.633Z,100845.72
2022-10-05T04:14:48.312Z,100845.13
2022-10-05T04:17:19.829Z,100848.59
2022-10-05T04:19:54.234Z,100845.94
2022-10-05T04:22:24.800Z,100857.34
2022-10-05T04:24:57.858Z,100858.31
2022-10-05T04:27:32.983Z,100858.53
2022-10-05T04:30:05.479Z,100862.94
2022-10-05T04:32:39.094Z,100861.41
2022-10-05T04:35:29.064Z,100866.44
2022-10-05T04:38:04.244Z,100868.13
2022-10-05T04:40:48.585Z,100871.38
2022-10-05T04:43:21.670Z,100871.25
2022-10-05T04:46:07.155Z,100872.69
2022-10-05T04:48:57.653Z,100878.69
2022-10-05T04:51:36.927Z,100872.59
2022-10-05T04:54:13.453Z,100868.38
2022-10-05T04:56:47.089Z,100873.63
2022-10-05T04:59:29.941Z,100870.03
2022-10-05T05:02:06.906Z,100875.09
2022-10-05T05:05:02.781Z,100877.50
2022-10-05T05:07:42.501Z,100878.94
2022-10-05T05:10:53.382Z,100891.56
2022-10-05T05:13:35.567Z,100893.13
2022-10-05T05:16:09.041Z,100886.75
2022-10-05T05:18:54.705Z,100896.53
2022-10-05T05:21:34.523Z,100893.38
2022-10-05T05:24:12.855Z,100889.19
2022-10-05T05:26:56.359Z,100893.75
2022-10-05T05:29:38.627Z,100905.88
2022-10-05T05:32:11.154Z,100887.41
2022-10-05T05:34:49.296Z,100896.97
2022-10-05T05:37:24.078Z,100893.38
2022-10-05T05:39:59.254Z,100889.53
2022-10-05T05:42:33.505Z,100886.41
2022-10-05T05:45:09.105Z,100877.53
2022-10-05T05:47:40.620Z,100875.75
2022-10-05T05:50:24.458Z,100881.38
2022-10-05T05:52:57.171Z,100893.66
2022-10-05T05:55:30.752Z,100883.19
2022-10-05T05:58:05.295Z,100888.00
2022-10-05T06:00:38.058Z,100884.75
2022-10-05T06:03:12.522Z,100882.94
2022-10-05T06:05:45.330Z,100890.72
2022-10-05T06:08:19.954Z,100882.81
2022-10-05T06:10:55.547Z,100891.00
2022-10-05T06:13:28.241Z,100872.50
2022-10-05T06:15:59.221Z,100883.41
2022-10-05T06:18:28.734Z,100882.16
2022-10-05T06:21:01.917Z,100882.50
2022-10-05T06:23:38.832Z,100874.38
2022-10-05T06:26:19.434Z,100874.13
2022-10-05T06:28:51.261Z,100866.59
2022-10-05T06:31:29.837Z,100864.66
2022-10-05T06:34:07.598Z,100869.06
2022-10-05T06:36:42.162Z,100878.22
2022-10-05T06:39:24.190Z,100866.22
2022-10-05T06:42:13.785Z,100860.06
2022-10-05T06:45:09.135Z,100867.31
2022-10-05T06:47:52.711Z,100874.97
2022-10-05T06:50:55.178Z,100874.91
2022-10-05T06:53:45.031Z,100887.63
2022-10-05T06:56:27.107Z,100889.69
2022-10-05T06:59:01.164Z,100885.97
2022-10-05T07:01:38.714Z,100896.00
2022-10-05T07:04:23.622Z,100887.47
2022-10-05T07:06:55.232Z,100888.00
2022-10-05T07:09:32.630Z,100879.41
2022-10-05T07:12:16.874Z,100878.81
2022-10-05T07:14:57.901Z,100884.69
2022-10-05T07:17:38.050Z,100883.69
2022-10-05T07:20:17.249Z,100882.44
2022-10-05T07:22:56.877Z,100867.19
2022-10-05T07:25:30.745Z,100869.19
2022-10-05T07:28:04.359Z,100873.94
2022-10-05T07:30:40.399Z,100876.03
2022-10-05T07:33:14.770Z,100870.84
2022-10-05T07:36:06.970Z,100868.06
2022-10-05T07:38:39.498Z,100849.06
2022-10-05T07:41:10.793Z,100853.81
2022-10-05T07:44:01.542Z,100857.19
2022-10-05T07:46:42.853Z,100852.22
2022-10-05T07:49:18.301Z,100849.84
2022-10-05T07:51:49.896Z,100848.75
2022-10-05T07:54:23.433Z,100842.88
2022-10-05T07:56:57.213Z,100844.06
2022-10-05T07:59:31.836Z,100839.06
2022-10-05T08:02:08.635Z,100840.09
2022-10-05T08:04:45.977Z,100844.34
2022-10-05T08:07:17.750Z,100840.13
2022-10-05T08:09:52.310Z,100839.44
2022-10-05T08:12:26.972Z,100850.34
2022-10-05T08:14:59.032Z,100833.88
2022-10-05T08:17:35.965Z,100831.91
2022-10-05T08:20:18.330Z,100825.69
2022-10-05T08:22:49.198Z,100821.25
2022-10-05T08:25:22.542Z,100821.97
2022-10-05T08:27:54.451Z,100828.47
2022-10-05T08:30:23.154Z,100813.56
2022-10-05T08:32:57.979Z,100822.25
2022-10-05T08:35:29.969Z,100818.03
2022-10-05T08:37:58.503Z,100808.81
2022-10-05T08:40:46.467Z,100816.22
2022-10-05T08:43:42.555Z,100819.00
2022-10-05T08:46:23.226Z,100819.50
2022-10-05T08:49:34.247Z,100823.44
2022-10-05T08:52:26.243Z,100823.84
2022-10-05T08:55:24.755Z,100822.16
2022-10-05T08:58:31.393Z,100815.88
2022-10-05T09:01:08.262Z,100818.38
2022-10-05T09:04:03.786Z,100813.00
2022-10-05T09:06:53.059Z,100804.53
2022-10-05T09:09:56.255Z,100794.50
2022-10-05T09:12:44.728Z,100802.22
2022-10-05T09:15:31.416Z,100790.25
2022-10-05T09:18:49.911Z,100784.75
2022-10-05T09:21:28.301Z,100781.03
2022-10-05T09:24:08.121Z,100774.81
2022-10-05T09:26:44.888Z,100771.34
2022-10-05T09:29:36.416Z,100768.78
2022-10-05T09:32:23.922Z,100773.16
2022-10-05T09:35:11.097Z,100773.72
2022-10-05T09:38:05.136Z,100773.72
2022-10-05T09:41:06.242Z,100781.56
2022-10-05T09:44:06.082Z,100775.56
2022-10-05T09:46:53.482Z,100777.56
2022-10-05T09:49:50.830Z,100779.91
2022-10-05T09:52:32.033Z,100782.53
2022-10-05T09:55:40.419Z,100774.69
2022-10-05T09:58:41.520Z,100777.91
2022-10-05T10:01:33.228Z,100768.94
2022-10-05T10:04:29.845Z,100782.53
2022-10-05T10:07:20.752Z,100784.00
2022-10-05T10:10:05.963Z,100789.94
2022-10-05T10:12:38.787Z,100795.88
2022-10-05T10:15:34.181Z,100794.66
2022-10-05T10:18:20.547Z,100796.34
2022-10-05T10:21:04.383Z,100789.72
2022-10-05T10:23:55.304Z,100791.41
2022-10-05T10:26:50.617Z,100791.81
2022-10-05T10:29:42.131Z,100791.53
2022-10-05T10:32:46.133Z,100790.31
2022-10-05T10:35:23.600Z,100788.34
2022-10-05T10:38:33.487Z,100773.66
2022-10-05T10:41:45.786Z,100775.41
2022-10-05T10:44:55.653Z,100759.78
2022-10-05T10:47:37.319Z,100740.28
2022-10-05T10:50:42.788Z,100739.81
2022-10-05T10:53:33.484Z,100728.03
2022-10-05T10:56:26.348Z,100737.56
2022-10-05T10:59:36.634Z,100722.31
2022-10-05T11:02:20.100Z,100721.88
2022-10-05T11:05:05.210Z,100733.19
2022-10-05T11:07:55.820Z,100733.97
2022-10-05T11:10:38.734Z,100727.34
2022-10-05T11:13:42.052Z,100734.41
2022-10-05T11:16:44.095Z,100724.91
2022-10-05T11:19:40.419Z,100733.72
2022-10-05T11:22:32.678Z,100726.41
2022-10-05T11:25:18.767Z,100721.25
2022-10-05T11:28:05.629Z,100713.13
2022-10-05T11:31:06.372Z,100717.69
2022-10-05T11:34:03.327Z,100717.72
2022-10-05T11:36:58.552Z,100709.38
2022-10-05T11:39:43.982Z,100724.31
2022-10-05T11:42:37.315Z,100723.13
2022-10-05T11:45:22.934Z,100713.97
2022-10-05T11:48:27.241Z,100720.00
2022-10-05T11:51:30.110Z,100729.50
2022-10-05T11:54:09.476Z,100709.34
2022-10-05T11:56:41.032Z,100722.91
2022-10-05T11:59:15.604Z,100714.34
2022-10-05T12:01:52.492Z,100713.16
2022-10-05T12:04:29.011Z,100709.78
2022-10-05T12:07:06.096Z,100719.59
2022-10-05T12:10:20.322Z,100711.91
2022-10-05T12:12:59.356Z,100726.19
2022-10-05T12:15:31.891Z,100722.44
2022-10-05T12:18:08.398Z,100719.06
2022-10-05T12:20:41.454Z,100712.06
2022-10-05T12:23:16.210Z,100713.63
2022-10-05T12:25:47.323Z,100713.25
2022-10-05T12:28:21.231Z,100721.22
2022-10-05T12:31:17.015Z,100712.69
2022-10-05T12:33:53.574Z,100708.53
2022-10-05T12:36:31.921Z,100710.69
2022-10-05T12:39:16.884Z,100717.16
2022-10-05T12:41:49.832Z,100711.22
2022-10-05T12:44:25.606Z,100715.28
2022-10-05T12:47:00.106Z,100710.78
2022-10-05T12:49:45.553Z,100715.53
2022-10-05T12:52:26.015Z,100716.47
2022-10-05T12:55:01.187Z,100713.13
2022-10-05T12:57:35.344Z,100706.19
2022-10-05T13:00:07.103Z,100710.00
2022-10-05T13:02:42.445Z,100709.91
2022-10-05T13:05:23.934Z,100708.19
2022-10-05T13:08:07.774Z,100706.13
2022-10-05T13:10:39.634Z,100703.28
2022-10-05T13:13:24.720Z,100707.41
2022-10-05T13:15:58.068Z,100703.66
2022-10-05T13:18:31.265Z,100704.19
2022-10-05T13:21:05.573Z,100703.41
2022-10-05T13:23:43.805Z,100714.34
2022-10-05T13:26:15.403Z,100699.78
2022-10-05T13:28:48.627Z,100702.63
2022-10-05T13:31:22.426Z,100702.53
2022-10-05T13:34:04.814Z,100699.63
2022-10-05T13:36:43.028Z,100704.06
2022-10-05T13:39:22.738Z,100702.09
2022-10-05T13:41:55.737Z,100706.53
2022-10-05T13:44:30.566Z,100700.88
2022-10-05T13:47:02.306Z,100698.44
2022-10-05T13:49:38.798Z,100697.31
2022-10-05T13:52:20.430Z,100703.00
2022-10-05T13:54:52.547Z,100709.56
2022-10-05T13:57:30.578Z,100711.69
2022-10-05T14:00:00.715Z,100701.59
2022-10-05T14:02:31.854Z,100698.53
2022-10-05T14:05:02.330Z,100695.22
2022-10-05T14:07:38.875Z,100695.31
2022-10-05T14:10:12.958Z,100694.00
2022-10-05T14:12:43.589Z,100686.47
2022-10-05T14:15:22.313Z,100679.66
2022-10-05T14:17:52.856Z,100675.63
2022-10-05T14:20:24.993Z,100679.50
2022-10-05T14:22:57.756Z,100679.81
2022-10-05T14:25:27.078Z,100677.84
2022-10-05T14:28:02.057Z,100677.00
2022-10-05T14:30:31.967Z,100672.84
2022-10-05T14:33:17.194Z,100671.00
2022-10-05T14:35:49.284Z,100675.56
2022-10-05T14:38:22.662Z,100678.53
2022-10-05T14:41:04.988Z,100672.88
2022-10-05T14:43:34.276Z,100683.94
2022-10-05T14:46:05.586Z,100682.59
2022-10-05T14:48:43.349Z,100678.47
2022-10-05T14:51:13.330Z,100677.63
2022-10-05T14:53:46.085Z,100677.81
2022-10-05T14:56:26.826Z,100681.34
2022-10-05T14:59:15.346Z,100677.13
2022-10-05T15:01:50.146Z,100687.00
2022-10-05T15:04:29.528Z,100689.69
2022-10-05T15:07:07.225Z,100681.81
2022-10-05T15:09:46.576Z,100677.16
2022-10-05T15:12:19.357Z,100672.16
2022-10-05T15:14:48.479Z,100669.81
2022-10-05T15:17:20.174Z,100666.81
2022-10-05T15:19:57.176Z,100660.50
2022-10-05T15:22:31.824Z,100664.81
2022-10-05T15:25:12.920Z,100654.16
2022-10-05T15:27:51.592Z,100653.81
2022-10-05T15:30:20.479Z,100657.69
2022-10-05T15:33:09.592Z,100661.34
2022-10-05T15:35:55.933Z,100655.50
2022-10-05T15:38:26.640Z,100651.81
2022-10-05T15:40:59.771Z,100640.69
2022-10-05T15:43:38.425Z,100649.84
2022-10-05T15:46:14.158Z,100648.34
2022-10-05T15:48:49.734Z,100640.66
2022-10-05T15:51:29.459Z,100644.66
2022-10-05T15:54:16.961Z,100643.00
2022-10-05T15:56:51.516Z,100657.84
2022-10-05T15:59:28.235Z,100663.16
2022-10-05T16:02:01.597Z,100647.69
2022-10-05T16:04:38.406Z,100654.34
2022-10-05T16:07:31.898Z,100657.16
2022-10-05T16:10:05.520Z,100656.66
2022-10-05T16:12:43.940Z,100655.47
2022-10-05T16:15:26.548Z,100647.66
2022-10-05T16:18:36.375Z,100632.00
2022-10-05T16:21:14.176Z,100633.16
2022-10-05T16:23:53.384Z,100634.00
2022-10-05T16:26:32.779Z,100624.66
2022-10-05T16:29:06.865Z,100613.50
2022-10-05T16:31:40.578Z,100635.81
2022-10-05T16:34:18.526Z,100631.50
2022-10-05T16:36:56.018Z,100617.50
2022-10-05T16:39:49.301Z,100625.16
2022-10-05T16:42:36.007Z,100624.63
2022-10-05T16:45:45.076Z,100625.81
2022-10-05T16:48:22.182Z,100623.28
2022-10-05T16:51:00.132Z,100619.50
2022-10-05T16:53:32.662Z,100623.28
2022-10-05T16:56:03.446Z,100623.28
2022-10-05T16:58:34.181Z,100621.13
2022-10-05T17:01:12.211Z,100628.31
2022-10-05T17:03:51.341Z,100625.66
2022-10-05T17:06:38.536Z,100618.47
2022-10-05T17:09:22.758Z,100626.78
2022-10-05T17:12:04.890Z,100625.28
2022-10-05T17:14:42.038Z,100633.44
2022-10-05T17:17:30.278Z,100629.44
2022-10-05T17:20:21.341Z,100622.28
2022-10-05T17:22:52.440Z,100625.09
2022-10-05T17:25:26.430Z,100626.94
2022-10-05T17:27:56.779Z,100629.75
2022-10-05T17:30:37.181Z,100628.94
2022-10-05T17:33:20.532Z,100622.75
2022-10-05T17:35:55.197Z,100623.94
2022-10-05T17:38:24.660Z,100622.25
2022-10-05T17:41:17.002Z,100627.06
2022-10-05T17:44:24.934Z,100616.41
2022-10-05T17:46:56.172Z,100617.03
2022-10-05T17:50:11.024Z,100618.19
2022-10-05T17:53:01.858Z,100620.03
2022-10-05T17:55:48.893Z,100611.38
2022-10-05T17:59:03.021Z,100610.88
2022-10-05T18:01:33.977Z,100608.53
2022-10-05T18:04:33.779Z,100614.16
2022-10-05T18:07:07.476Z,100610.84
2022-10-05T18:09:56.516Z,100611.16
2022-10-05T18:12:44.216Z,100613.28
2022-10-05T18:15:21.414Z,100616.63
2022-10-05T18:17:51.505Z,100608.97
2022-10-05T18:20:29.639Z,100617.78
2022-10-05T18:23:35.729Z,100609.81
2022-10-05T18:26:15.989Z,100602.00
2022-10-05T18:28:54.273Z,100598.03
2022-10-05T18:31:31.612Z,100597.03
2022-10-05T18:34:18.035Z,100601.84
2022-10-05T18:36:59.240Z,100591.22
2022-10-05T18:39:39.701Z,100588.53
2022-10-05T18:42:14.741Z,100594.22
2022-10-05T18:44:46.640Z,100594.38
2022-10-05T18:47:19.969Z,100593.56
2022-10-05T18:50:11.584Z,100594.69
2022-10-05T18:52:51.952Z,100609.16
2022-10-05T18:55:27.035Z,100594.00
2022-10-05T18:58:05.670Z,100602.50
2022-10-05T19:01:01.061Z,100604.31
2022-10-05T19:03:35.252Z,100603.31
2022-10-05T19:06:13.435Z,100590.31
2022-10-05T19:08:50.928Z,100589.19
2022-10-05T19:11:25.660Z,100584.69
2022-10-05T19:14:02.115Z,100594.34
2022-10-05T19:16:52.614Z,100590.69
2022-10-05T19:19:48.758Z,100592.53
2022-10-05T19:22:25.023Z,100588.88
2022-10-05T19:25:06.744Z,100589.19
2022-10-05T19:27:44.699Z,100590.00
2022-10-05T19:30:19.571Z,100588.66
2022-10-05T19:33:04.989Z,100585.31
2022-10-05T19:35:41.134Z,100606.78
2022-10-05T19:38:24.618Z,100581.66
2022-10-05T19:40:58.015Z,100581.84
2022-10-05T19:43:53.565Z,100596.31
2022-10-05T19:46:30.941Z,100601.09
2022-10-05T19:49:00.311Z,100595.97
2022-10-05T19:51:31.403Z,100600.91
2022-10-05T19:54:03.059Z,100605.56
2022-10-05T19:56:34.761Z,100597.72
2022-10-05T19:59:14.354Z,100604.53
2022-10-05T20:01:49.197Z,100597.84
2022-10-05T20:04:33.025Z,100601.50
2022-10-05T20:07:02.498Z,100606.31
2022-10-05T20:09:31.735Z,100608.81
2022-10-05T20:12:01.055Z,100601.31
2022-10-05T20:14:58.559Z,100609.44
2022-10-05T20:17:45.890Z,100610.09
2022-10-05T20:20:33.276Z,100611.53
2022-10-05T20:23:20.192Z,100622.66
2022-10-05T20:26:09.957Z,100621.66
2022-10-05T20:28:39.004Z,100616.66
2022-10-05T20:31:09.554Z,100622.44
2022-10-05T20:33:40.348Z,100621.41
2022-10-05T20:36:09.163Z,100620.78
2022-10-05T20:38:41.035Z,100621.94
2022-10-05T20:41:10.571Z,100619.78
2022-10-05T20:43:39.548Z,100618.41
2022-10-05T20:46:09.764Z,100618.41
2022-10-05T20:48:38.664Z,100620.50
2022-10-05T20:51:07.875Z,100609.75
2022-10-05T20:53:36.671Z,100623.84
2022-10-05T20:56:06.163Z,100621.38
2022-10-05T20:58:34.564Z,100622.34
2022-10-05T21:01:19.877Z,100627.28
2022-10-05T21:03:50.789Z,100627.59
2022-10-05T21:06:21.133Z,100624.25
2022-10-05T21:08:50.953Z,100630.81
2022-10-05T21:11:19.969Z,100640.63
2022-10-05T21:13:49.422Z,100627.78
2022-10-05T21:16:20.137Z,100642.06
2022-10-05T21:18:50.604Z,100634.25
2022-10-05T21:21:19.242Z,100638.72
2022-10-05T21:23:48.984Z,100641.53
2022-10-05T21:26:18.097Z,100641.06
2022-10-05T21:28:46.911Z,100632.78
2022-10-05T21:31:16.032Z,100642.22
2022-10-05T21:33:44.818Z,100641.66
2022-10-05T21:36:18.351Z,100637.81
2022-10-05T21:38:48.979Z,100645.66
2022-10-05T21:41:18.187Z,100649.59
2022-10-05T21:43:47.761Z,100650.88
2022-10-05T21:46:19.990Z,100652.69
2022-10-05T21:48:49.745Z,100643.63
2022-10-05T21:51:20.574Z,100647.03
2022-10-05T21:53:54.777Z,100648.72
2022-10-05T21:56:25.614Z,100647.72
2022-10-05T21:58:54.220Z,100649.00
2022-10-05T22:01:23.271Z,100654.63
2022-10-05T22:03:52.959Z,100658.56
2022-10-05T22:06:23.991Z,100646.56
2022-10-05T22:08:52.739Z,100647.19
2022-10-05T22:11:21.519Z,100653.06
2022-10-05T22:13:51.708Z,100653.66
2022-10-05T22:16:22.373Z,100651.13
2022-10-05T22:18:53.669Z,100653.25
2022-10-05T22:21:23.735Z,100649.91
2022-10-05T22:23:52.569Z,100645.19
2022-10-05T22:26:22.787Z,100644.84
2022-10-05T22:28:55.229Z,100646.16
2022-10-05T22:31:24.220Z,100646.97
2022-10-05T22:33:53.117Z,100647.94
2022-10-05T22:36:23.799Z,100649.91
2022-10-05T22:38:52.484Z,100647.31
2022-10-05T22:41:21.118Z,100649.41
2022-10-05T22:43:50.921Z,100644.84
2022-10-05T22:46:20.360Z,100642.34
2022-10-05T22:48:49.261Z,100649.72
2022-10-05T22:51:18.100Z,100648.22
2022-10-05T22:53:48.265Z,100651.16
2022-10-05T22:56:16.916Z,100651.56
2022-10-05T22:58:45.601Z,100651.56
2022-10-05T23:01:16.310Z,100654.66
2022-10-05T23:03:45.511Z,100661.41
2022-10-05T23:06:16.088Z,100664.47
2022-10-05T23:08:46.065Z,100659.56
2022-10-05T23:11:19.015Z,100671.44
2022-10-05T23:13:47.499Z,100667.53
2022-10-05T23:16:17.713Z,100671.03
2022-10-05T23:18:48.714Z,100666.13
2022-10-05T23:21:19.596Z,100672.13
2022-10-05T23:23:51.154Z,100672.97
2022-10-05T23:26:22.628Z,100679.81
2022-10-05T23:28:51.077Z,100679.09
2022-10-05T23:31:21.378Z,100682.63
2022-10-05T23:33:50.225Z,100687.50
2022-10-05T23:36:21.641Z,100680.81
2022-10-05T23:39:14.650Z,100682.06
2022-10-05T23:42:11.636Z,100682.63
2022-10-05T23:45:11.195Z,100676.78
2022-10-05T23:48:08.798Z,100684.03
2022-10-05T23:51:03.657Z,100679.03
2022-10-05T23:54:01.904Z,100681.78
2022-10-05T23:57:00.144Z,100670.50
2022-10-05T23:59:56.382Z,100682.06
